sensor_id;sensor_type;location;lat;lon;timestamp;pressure;altitude;pressure_sealevel;temperature;humidity
75536;BME280;64119;52.070;20.804;2023-11-21T00:00:56;99763.74;;;0.84;100.00
75536;BME280;64119;52.070;20.804;2023-11-21T00:03:38;99765.81;;;0.82;100.00
75536;BME280;64119;52.070;20.804;2023-11-21T00:06:07;99767.10;;;0.80;100.00
75536;BME280;64119;52.070;20.804;2023-11-21T00:08:37;99769.45;;;0.77;100.00
75536;BME280;64119;52.070;20.804;2023-11-21T00:11:05;99774.17;;;0.75;100.00
75536;BME280;64119;52.070;20.804;2023-11-21T00:13:33;99777.02;;;0.68;100.00
75536;BME280;64119;52.070;20.804;2023-11-21T00:16:01;99784.02;;;0.68;100.00
75536;BME280;64119;52.070;20.804;2023-11-21T00:18:29;99786.20;;;0.67;100.00
75536;BME280;64119;52.070;20.804;2023-11-21T00:20:56;99792.02;;;0.66;100.00
75536;BME280;64119;52.070;20.804;2023-11-21T00:23:26;99795.84;;;0.66;100.00
75536;BME280;64119;52.070;20.804;2023-11-21T00:25:54;99795.67;;;0.66;100.00
75536;BME280;64119;52.070;20.804;2023-11-21T00:28:22;99794.04;;;0.67;100.00
75536;BME280;64119;52.070;20.804;2023-11-21T00:30:50;99790.48;;;0.70;100.00
75536;BME280;64119;52.070;20.804;2023-11-21T00:33:17;99791.86;;;0.70;100.00
75536;BME280;64119;52.070;20.804;2023-11-21T00:35:46;99794.08;;;0.70;100.00
75536;BME280;64119;52.070;20.804;2023-11-21T00:38:14;99797.08;;;0.72;100.00
75536;BME280;64119;52.070;20.804;2023-11-21T00:40:42;99800.94;;;0.73;100.00
75536;BME280;64119;52.070;20.804;2023-11-21T00:43:10;99806.35;;;0.75;100.00
75536;BME280;64119;52.070;20.804;2023-11-21T00:45:38;99809.39;;;0.76;100.00
75536;BME280;64119;52.070;20.804;2023-11-21T00:48:07;99813.31;;;0.77;100.00
75536;BME280;64119;52.070;20.804;2023-11-21T00:50:36;99816.02;;;0.78;100.00
75536;BME280;64119;52.070;20.804;2023-11-21T00:53:03;99818.73;;;0.78;100.00
75536;BME280;64119;52.070;20.804;2023-11-21T00:55:31;99817.07;;;0.78;100.00
75536;BME280;64119;52.070;20.804;2023-11-21T00:57:59;99816.64;;;0.77;100.00
75536;BME280;64119;52.070;20.804;2023-11-21T01:00:27;99813.72;;;0.74;100.00
75536;BME280;64119;52.070;20.804;2023-11-21T01:02:55;99813.13;;;0.75;100.00
75536;BME280;64119;52.070;20.804;2023-11-21T01:05:23;99813.77;;;0.74;100.00
75536;BME280;64119;52.070;20.804;2023-11-21T01:07:50;99817.41;;;0.72;100.00
75536;BME280;64119;52.070;20.804;2023-11-21T01:10:18;99819.11;;;0.69;100.00
75536;BME280;64119;52.070;20.804;2023-11-21T01:12:46;99818.32;;;0.64;100.00
75536;BME280;64119;52.070;20.804;2023-11-21T01:15:14;99815.40;;;0.61;100.00
75536;BME280;64119;52.070;20.804;2023-11-21T01:17:43;99810.88;;;0.61;100.00
75536;BME280;64119;52.070;20.804;2023-11-21T01:20:11;99818.63;;;0.59;100.00
75536;BME280;64119;52.070;20.804;2023-11-21T01:22:41;99823.82;;;0.57;100.00
75536;BME280;64119;52.070;20.804;2023-11-21T01:25:09;99828.73;;;0.55;100.00
75536;BME280;64119;52.070;20.804;2023-11-21T01:27:38;99833.62;;;0.53;100.00
75536;BME280;64119;52.070;20.804;2023-11-21T01:30:06;99830.21;;;0.56;100.00
75536;BME280;64119;52.070;20.804;2023-11-21T01:32:36;99837.80;;;0.58;100.00
75536;BME280;64119;52.070;20.804;2023-11-21T01:35:04;99835.41;;;0.60;100.00
75536;BME280;64119;52.070;20.804;2023-11-21T01:37:33;99840.64;;;0.60;100.00
75536;BME280;64119;52.070;20.804;2023-11-21T01:40:02;99840.02;;;0.61;100.00
75536;BME280;64119;52.070;20.804;2023-11-21T01:42:32;99838.98;;;0.63;100.00
75536;BME280;64119;52.070;20.804;2023-11-21T01:45:02;99835.19;;;0.64;100.00
75536;BME280;64119;52.070;20.804;2023-11-21T01:47:33;99830.32;;;0.66;100.00
75536;BME280;64119;52.070;20.804;2023-11-21T01:50:02;99831.64;;;0.67;100.00
75536;BME280;64119;52.070;20.804;2023-11-21T01:52:37;99835.29;;;0.68;100.00
75536;BME280;64119;52.070;20.804;2023-11-21T01:55:07;99835.51;;;0.66;100.00
75536;BME280;64119;52.070;20.804;2023-11-21T01:57:36;99836.20;;;0.66;100.00
75536;BME280;64119;52.070;20.804;2023-11-21T02:00:07;99833.13;;;0.65;100.00
75536;BME280;64119;52.070;20.804;2023-11-21T02:02:48;99831.75;;;0.65;100.00
75536;BME280;64119;52.070;20.804;2023-11-21T02:05:18;99832.27;;;0.67;100.00
75536;BME280;64119;52.070;20.804;2023-11-21T02:07:47;99832.05;;;0.64;100.00
75536;BME280;64119;52.070;20.804;2023-11-21T02:10:20;99835.04;;;0.62;100.00
75536;BME280;64119;52.070;20.804;2023-11-21T02:12:52;99838.17;;;0.62;100.00
75536;BME280;64119;52.070;20.804;2023-11-21T02:15:22;99843.26;;;0.59;100.00
75536;BME280;64119;52.070;20.804;2023-11-21T02:17:51;99841.17;;;0.53;100.00
75536;BME280;64119;52.070;20.804;2023-11-21T02:20:21;99847.40;;;0.54;100.00
75536;BME280;64119;52.070;20.804;2023-11-21T02:22:51;99847.73;;;0.54;100.00
75536;BME280;64119;52.070;20.804;2023-11-21T02:25:27;99848.78;;;0.54;100.00
75536;BME280;64119;52.070;20.804;2023-11-21T02:27:57;99851.73;;;0.50;100.00
75536;BME280;64119;52.070;20.804;2023-11-21T02:30:26;99852.70;;;0.49;100.00
75536;BME280;64119;52.070;20.804;2023-11-21T02:32:55;99855.19;;;0.49;100.00
75536;BME280;64119;52.070;20.804;2023-11-21T02:35:26;99853.42;;;0.47;100.00
75536;BME280;64119;52.070;20.804;2023-11-21T02:37:54;99853.69;;;0.46;100.00
75536;BME280;64119;52.070;20.804;2023-11-21T02:40:23;99853.99;;;0.45;100.00
75536;BME280;64119;52.070;20.804;2023-11-21T02:42:53;99858.05;;;0.42;100.00
75536;BME280;64119;52.070;20.804;2023-11-21T02:45:21;99860.91;;;0.41;100.00
75536;BME280;64119;52.070;20.804;2023-11-21T02:47:51;99865.48;;;0.41;100.00
75536;BME280;64119;52.070;20.804;2023-11-21T02:50:21;99865.20;;;0.40;100.00
75536;BME280;64119;52.070;20.804;2023-11-21T02:52:51;99863.08;;;0.39;100.00
75536;BME280;64119;52.070;20.804;2023-11-21T02:55:20;99861.88;;;0.38;100.00
75536;BME280;64119;52.070;20.804;2023-11-21T02:57:48;99865.16;;;0.36;100.00
75536;BME280;64119;52.070;20.804;2023-11-21T03:00:16;99866.44;;;0.36;100.00
75536;BME280;64119;52.070;20.804;2023-11-21T03:02:45;99871.98;;;0.36;100.00
75536;BME280;64119;52.070;20.804;2023-11-21T03:05:13;99869.83;;;0.33;100.00
75536;BME280;64119;52.070;20.804;2023-11-21T03:07:40;99871.29;;;0.30;100.00
75536;BME280;64119;52.070;20.804;2023-11-21T03:10:09;99868.08;;;0.29;100.00
75536;BME280;64119;52.070;20.804;2023-11-21T03:12:39;99863.70;;;0.28;100.00
75536;BME280;64119;52.070;20.804;2023-11-21T03:15:08;99864.85;;;0.28;100.00
75536;BME280;64119;52.070;20.804;2023-11-21T03:17:39;99869.30;;;0.27;100.00
75536;BME280;64119;52.070;20.804;2023-11-21T03:20:07;99876.33;;;0.23;100.00
75536;BME280;64119;52.070;20.804;2023-11-21T03:22:39;99879.52;;;0.22;100.00
75536;BME280;64119;52.070;20.804;2023-11-21T03:25:07;99884.06;;;0.18;100.00
75536;BME280;64119;52.070;20.804;2023-11-21T03:27:38;99885.30;;;0.17;100.00
75536;BME280;64119;52.070;20.804;2023-11-21T03:30:08;99888.23;;;0.16;100.00
75536;BME280;64119;52.070;20.804;2023-11-21T03:32:36;99889.17;;;0.15;100.00
75536;BME280;64119;52.070;20.804;2023-11-21T03:35:05;99889.98;;;0.12;100.00
75536;BME280;64119;52.070;20.804;2023-11-21T03:37:34;99891.98;;;0.13;100.00
75536;BME280;64119;52.070;20.804;2023-11-21T03:40:02;99889.92;;;0.13;100.00
75536;BME280;64119;52.070;20.804;2023-11-21T03:42:31;99893.45;;;0.12;100.00
75536;BME280;64119;52.070;20.804;2023-11-21T03:44:59;99898.91;;;0.11;100.00
75536;BME280;64119;52.070;20.804;2023-11-21T03:47:28;99892.95;;;0.10;100.00
75536;BME280;64119;52.070;20.804;2023-11-21T03:49:56;99898.29;;;0.09;100.00
75536;BME280;64119;52.070;20.804;2023-11-21T03:52:24;99895.91;;;0.06;100.00
75536;BME280;64119;52.070;20.804;2023-11-21T03:54:52;99898.05;;;0.05;100.00
75536;BME280;64119;52.070;20.804;2023-11-21T03:57:21;99903.48;;;0.05;100.00
75536;BME280;64119;52.070;20.804;2023-11-21T03:59:48;99902.21;;;0.03;100.00
75536;BME280;64119;52.070;20.804;2023-11-21T04:02:16;99904.71;;;0.03;100.00
75536;BME280;64119;52.070;20.804;2023-11-21T04:04:45;99908.62;;;-0.01;100.00
75536;BME280;64119;52.070;20.804;2023-11-21T04:07:13;99911.30;;;-0.02;100.00
75536;BME280;64119;52.070;20.804;2023-11-21T04:09:41;99914.44;;;-0.04;100.00
75536;BME280;64119;52.070;20.804;2023-11-21T04:12:09;99916.35;;;-0.06;100.00
75536;BME280;64119;52.070;20.804;2023-11-21T04:14:37;99915.42;;;-0.07;100.00
75536;BME280;64119;52.070;20.804;2023-11-21T04:17:05;99918.95;;;-0.06;100.00
75536;BME280;64119;52.070;20.804;2023-11-21T04:19:33;99920.86;;;-0.06;100.00
75536;BME280;64119;52.070;20.804;2023-11-21T04:22:01;99920.72;;;-0.04;100.00
75536;BME280;64119;52.070;20.804;2023-11-21T04:24:28;99922.79;;;-0.02;100.00
75536;BME280;64119;52.070;20.804;2023-11-21T04:26:56;99922.70;;;-0.03;100.00
75536;BME280;64119;52.070;20.804;2023-11-21T04:29:24;99923.67;;;-0.04;100.00
75536;BME280;64119;52.070;20.804;2023-11-21T04:31:52;99928.62;;;-0.05;100.00
75536;BME280;64119;52.070;20.804;2023-11-21T04:34:20;99932.73;;;-0.04;100.00
75536;BME280;64119;52.070;20.804;2023-11-21T04:36:48;99933.42;;;-0.04;100.00
75536;BME280;64119;52.070;20.804;2023-11-21T04:39:15;99936.77;;;-0.07;100.00
75536;BME280;64119;52.070;20.804;2023-11-21T04:41:43;99940.48;;;-0.08;100.00
75536;BME280;64119;52.070;20.804;2023-11-21T04:44:11;99943.14;;;-0.08;100.00
75536;BME280;64119;52.070;20.804;2023-11-21T04:46:38;99945.20;;;-0.08;100.00
75536;BME280;64119;52.070;20.804;2023-11-21T04:49:06;99947.98;;;-0.08;100.00
75536;BME280;64119;52.070;20.804;2023-11-21T04:51:34;99949.32;;;-0.09;100.00
75536;BME280;64119;52.070;20.804;2023-11-21T04:54:02;99951.66;;;-0.12;100.00
75536;BME280;64119;52.070;20.804;2023-11-21T04:56:30;99953.66;;;-0.15;100.00
75536;BME280;64119;52.070;20.804;2023-11-21T04:58:58;99952.75;;;-0.17;100.00
75536;BME280;64119;52.070;20.804;2023-11-21T05:01:25;99949.49;;;-0.19;100.00
75536;BME280;64119;52.070;20.804;2023-11-21T05:03:54;99946.86;;;-0.21;100.00
75536;BME280;64119;52.070;20.804;2023-11-21T05:06:22;99943.84;;;-0.20;100.00
75536;BME280;64119;52.070;20.804;2023-11-21T05:08:49;99945.65;;;-0.21;100.00
75536;BME280;64119;52.070;20.804;2023-11-21T05:11:27;99946.39;;;-0.20;100.00
75536;BME280;64119;52.070;20.804;2023-11-21T05:13:55;99954.91;;;-0.22;100.00
75536;BME280;64119;52.070;20.804;2023-11-21T05:16:25;99957.65;;;-0.23;100.00
75536;BME280;64119;52.070;20.804;2023-11-21T05:18:55;99967.88;;;-0.25;100.00
75536;BME280;64119;52.070;20.804;2023-11-21T05:21:28;99970.86;;;-0.27;100.00
75536;BME280;64119;52.070;20.804;2023-11-21T05:23:57;99972.11;;;-0.28;100.00
75536;BME280;64119;52.070;20.804;2023-11-21T05:26:25;99975.91;;;-0.30;100.00
75536;BME280;64119;52.070;20.804;2023-11-21T05:28:53;99983.80;;;-0.32;100.00
75536;BME280;64119;52.070;20.804;2023-11-21T05:31:21;99984.91;;;-0.35;100.00
75536;BME280;64119;52.070;20.804;2023-11-21T05:33:49;99991.89;;;-0.37;100.00
75536;BME280;64119;52.070;20.804;2023-11-21T05:36:17;99991.26;;;-0.38;100.00
75536;BME280;64119;52.070;20.804;2023-11-21T05:38:44;99993.61;;;-0.39;100.00
75536;BME280;64119;52.070;20.804;2023-11-21T05:41:13;99994.21;;;-0.38;100.00
75536;BME280;64119;52.070;20.804;2023-11-21T05:43:41;99998.67;;;-0.37;100.00
75536;BME280;64119;52.070;20.804;2023-11-21T05:46:09;100003.65;;;-0.37;100.00
75536;BME280;64119;52.070;20.804;2023-11-21T05:48:37;100009.33;;;-0.38;100.00
75536;BME280;64119;52.070;20.804;2023-11-21T05:51:06;100009.77;;;-0.39;100.00
75536;BME280;64119;52.070;20.804;2023-11-21T05:53:34;100011.55;;;-0.40;100.00
75536;BME280;64119;52.070;20.804;2023-11-21T05:56:02;100013.45;;;-0.42;100.00
75536;BME280;64119;52.070;20.804;2023-11-21T05:58:31;100016.14;;;-0.43;100.00
75536;BME280;64119;52.070;20.804;2023-11-21T06:00:59;100016.36;;;-0.43;100.00
75536;BME280;64119;52.070;20.804;2023-11-21T06:03:27;100017.50;;;-0.42;100.00
75536;BME280;64119;52.070;20.804;2023-11-21T06:05:55;100020.96;;;-0.42;100.00
75536;BME280;64119;52.070;20.804;2023-11-21T06:08:23;100022.57;;;-0.43;100.00
75536;BME280;64119;52.070;20.804;2023-11-21T06:10:50;100026.20;;;-0.43;100.00
75536;BME280;64119;52.070;20.804;2023-11-21T06:13:18;100031.66;;;-0.41;100.00
75536;BME280;64119;52.070;20.804;2023-11-21T06:15:52;100033.79;;;-0.40;100.00
75536;BME280;64119;52.070;20.804;2023-11-21T06:18:20;100040.55;;;-0.40;100.00
75536;BME280;64119;52.070;20.804;2023-11-21T06:20:48;100043.29;;;-0.39;100.00
75536;BME280;64119;52.070;20.804;2023-11-21T06:23:16;100044.60;;;-0.38;100.00
75536;BME280;64119;52.070;20.804;2023-11-21T06:25:44;100043.48;;;-0.37;100.00
75536;BME280;64119;52.070;20.804;2023-11-21T06:28:12;100046.34;;;-0.36;100.00
75536;BME280;64119;52.070;20.804;2023-11-21T06:30:40;100050.08;;;-0.35;100.00
75536;BME280;64119;52.070;20.804;2023-11-21T06:33:08;100051.33;;;-0.36;100.00
75536;BME280;64119;52.070;20.804;2023-11-21T06:35:36;100054.02;;;-0.35;100.00
75536;BME280;64119;52.070;20.804;2023-11-21T06:38:04;100054.54;;;-0.36;100.00
75536;BME280;64119;52.070;20.804;2023-11-21T06:40:32;100057.23;;;-0.38;100.00
75536;BME280;64119;52.070;20.804;2023-11-21T06:43:01;100063.17;;;-0.40;100.00
75536;BME280;64119;52.070;20.804;2023-11-21T06:45:29;100071.16;;;-0.40;100.00
75536;BME280;64119;52.070;20.804;2023-11-21T06:47:57;100070.27;;;-0.40;100.00
75536;BME280;64119;52.070;20.804;2023-11-21T06:50:25;100073.21;;;-0.42;100.00
75536;BME280;64119;52.070;20.804;2023-11-21T06:52:53;100071.92;;;-0.41;100.00
75536;BME280;64119;52.070;20.804;2023-11-21T06:55:21;100074.70;;;-0.41;100.00
75536;BME280;64119;52.070;20.804;2023-11-21T06:57:49;100079.02;;;-0.41;100.00
75536;BME280;64119;52.070;20.804;2023-11-21T07:00:17;100080.95;;;-0.38;100.00
75536;BME280;64119;52.070;20.804;2023-11-21T07:02:45;100084.82;;;-0.37;100.00
75536;BME280;64119;52.070;20.804;2023-11-21T07:05:13;100088.14;;;-0.38;100.00
75536;BME280;64119;52.070;20.804;2023-11-21T07:07:43;100094.08;;;-0.38;100.00
75536;BME280;64119;52.070;20.804;2023-11-21T07:10:11;100095.08;;;-0.37;100.00
75536;BME280;64119;52.070;20.804;2023-11-21T07:12:40;100092.72;;;-0.38;100.00
75536;BME280;64119;52.070;20.804;2023-11-21T07:15:09;100091.56;;;-0.39;100.00
75536;BME280;64119;52.070;20.804;2023-11-21T07:17:37;100094.08;;;-0.38;100.00
75536;BME280;64119;52.070;20.804;2023-11-21T07:20:08;100094.91;;;-0.38;100.00
75536;BME280;64119;52.070;20.804;2023-11-21T07:22:36;100092.89;;;-0.36;100.00
75536;BME280;64119;52.070;20.804;2023-11-21T07:25:04;100097.59;;;-0.34;100.00
75536;BME280;64119;52.070;20.804;2023-11-21T07:27:32;100100.98;;;-0.35;100.00
75536;BME280;64119;52.070;20.804;2023-11-21T07:30:03;100107.03;;;-0.35;100.00
75536;BME280;64119;52.070;20.804;2023-11-21T07:32:32;100109.27;;;-0.34;100.00
75536;BME280;64119;52.070;20.804;2023-11-21T07:35:00;100111.88;;;-0.32;100.00
75536;BME280;64119;52.070;20.804;2023-11-21T07:37:29;100113.38;;;-0.30;100.00
75536;BME280;64119;52.070;20.804;2023-11-21T07:39:57;100116.36;;;-0.28;100.00
75536;BME280;64119;52.070;20.804;2023-11-21T07:42:24;100124.77;;;-0.27;100.00
75536;BME280;64119;52.070;20.804;2023-11-21T07:44:55;100123.48;;;-0.26;100.00
75536;BME280;64119;52.070;20.804;2023-11-21T07:47:24;100127.91;;;-0.25;100.00
75536;BME280;64119;52.070;20.804;2023-11-21T07:49:55;100124.30;;;-0.27;100.00
75536;BME280;64119;52.070;20.804;2023-11-21T07:52:23;100120.54;;;-0.28;100.00
75536;BME280;64119;52.070;20.804;2023-11-21T07:54:51;100121.91;;;-0.30;100.00
75536;BME280;64119;52.070;20.804;2023-11-21T07:57:19;100120.89;;;-0.30;100.00
75536;BME280;64119;52.070;20.804;2023-11-21T07:59:47;100117.95;;;-0.32;100.00
75536;BME280;64119;52.070;20.804;2023-11-21T08:02:15;100119.27;;;-0.32;100.00
75536;BME280;64119;52.070;20.804;2023-11-21T08:04:45;100116.29;;;-0.29;100.00
75536;BME280;64119;52.070;20.804;2023-11-21T08:07:13;100112.56;;;-0.28;100.00
75536;BME280;64119;52.070;20.804;2023-11-21T08:09:41;100113.73;;;-0.28;100.00
75536;BME280;64119;52.070;20.804;2023-11-21T08:12:09;100118.78;;;-0.26;100.00
75536;BME280;64119;52.070;20.804;2023-11-21T08:14:38;100122.00;;;-0.27;100.00
75536;BME280;64119;52.070;20.804;2023-11-21T08:17:06;100128.23;;;-0.27;100.00
75536;BME280;64119;52.070;20.804;2023-11-21T08:19:35;100130.19;;;-0.25;100.00
75536;BME280;64119;52.070;20.804;2023-11-21T08:22:03;100135.89;;;-0.25;100.00
75536;BME280;64119;52.070;20.804;2023-11-21T08:24:31;100138.80;;;-0.26;100.00
75536;BME280;64119;52.070;20.804;2023-11-21T08:26:59;100146.93;;;-0.26;100.00
75536;BME280;64119;52.070;20.804;2023-11-21T08:29:27;100147.75;;;-0.25;100.00
75536;BME280;64119;52.070;20.804;2023-11-21T08:31:55;100149.80;;;-0.27;100.00
75536;BME280;64119;52.070;20.804;2023-11-21T08:34:23;100150.21;;;-0.28;100.00
75536;BME280;64119;52.070;20.804;2023-11-21T08:36:51;100152.20;;;-0.29;100.00
75536;BME280;64119;52.070;20.804;2023-11-21T08:39:19;100155.58;;;-0.30;100.00
75536;BME280;64119;52.070;20.804;2023-11-21T08:41:47;100155.72;;;-0.29;100.00
75536;BME280;64119;52.070;20.804;2023-11-21T08:44:15;100158.72;;;-0.28;100.00
75536;BME280;64119;52.070;20.804;2023-11-21T08:46:45;100161.86;;;-0.28;100.00
75536;BME280;64119;52.070;20.804;2023-11-21T08:49:14;100162.73;;;-0.26;100.00
75536;BME280;64119;52.070;20.804;2023-11-21T08:51:44;100162.83;;;-0.25;100.00
75536;BME280;64119;52.070;20.804;2023-11-21T08:54:12;100163.23;;;-0.23;100.00
75536;BME280;64119;52.070;20.804;2023-11-21T08:56:40;100169.88;;;-0.24;100.00
75536;BME280;64119;52.070;20.804;2023-11-21T08:59:07;100170.92;;;-0.22;100.00
75536;BME280;64119;52.070;20.804;2023-11-21T09:01:36;100171.36;;;-0.21;100.00
75536;BME280;64119;52.070;20.804;2023-11-21T09:04:04;100172.38;;;-0.18;100.00
75536;BME280;64119;52.070;20.804;2023-11-21T09:06:32;100175.67;;;-0.18;100.00
75536;BME280;64119;52.070;20.804;2023-11-21T09:09:00;100174.95;;;-0.20;100.00
75536;BME280;64119;52.070;20.804;2023-11-21T09:11:28;100177.93;;;-0.21;100.00
75536;BME280;64119;52.070;20.804;2023-11-21T09:14:01;100182.93;;;-0.20;100.00
75536;BME280;64119;52.070;20.804;2023-11-21T09:16:29;100185.66;;;-0.21;100.00
75536;BME280;64119;52.070;20.804;2023-11-21T09:18:58;100185.24;;;-0.25;100.00
75536;BME280;64119;52.070;20.804;2023-11-21T09:21:27;100185.11;;;-0.25;100.00
75536;BME280;64119;52.070;20.804;2023-11-21T09:23:55;100184.89;;;-0.31;100.00
75536;BME280;64119;52.070;20.804;2023-11-21T09:26:23;100186.00;;;-0.32;100.00
75536;BME280;64119;52.070;20.804;2023-11-21T09:28:51;100188.46;;;-0.36;100.00
75536;BME280;64119;52.070;20.804;2023-11-21T09:31:20;100191.56;;;-0.38;100.00
75536;BME280;64119;52.070;20.804;2023-11-21T09:33:50;100191.14;;;-0.37;100.00
75536;BME280;64119;52.070;20.804;2023-11-21T09:36:18;100190.71;;;-0.38;100.00
75536;BME280;64119;52.070;20.804;2023-11-21T09:38:46;100192.67;;;-0.39;100.00
75536;BME280;64119;52.070;20.804;2023-11-21T09:41:37;100191.76;;;-0.39;100.00
75536;BME280;64119;52.070;20.804;2023-11-21T09:44:09;100190.38;;;-0.36;100.00
75536;BME280;64119;52.070;20.804;2023-11-21T09:46:41;100191.79;;;-0.32;100.00
75536;BME280;64119;52.070;20.804;2023-11-21T09:49:11;100188.75;;;-0.32;100.00
75536;BME280;64119;52.070;20.804;2023-11-21T09:51:42;100190.91;;;-0.30;100.00
75536;BME280;64119;52.070;20.804;2023-11-21T09:54:11;100192.44;;;-0.32;100.00
75536;BME280;64119;52.070;20.804;2023-11-21T09:56:40;100191.52;;;-0.32;100.00
75536;BME280;64119;52.070;20.804;2023-11-21T09:59:11;100191.39;;;-0.30;100.00
75536;BME280;64119;52.070;20.804;2023-11-21T10:01:40;100194.75;;;-0.29;100.00
75536;BME280;64119;52.070;20.804;2023-11-21T10:04:09;100201.52;;;-0.28;99.97
75536;BME280;64119;52.070;20.804;2023-11-21T10:06:41;100205.06;;;-0.29;100.00
75536;BME280;64119;52.070;20.804;2023-11-21T10:09:14;100207.35;;;-0.32;99.39
75536;BME280;64119;52.070;20.804;2023-11-21T10:11:42;100207.22;;;-0.32;99.86
75536;BME280;64119;52.070;20.804;2023-11-21T10:14:11;100206.94;;;-0.29;99.93
75536;BME280;64119;52.070;20.804;2023-11-21T10:16:44;100204.88;;;-0.27;99.81
75536;BME280;64119;52.070;20.804;2023-11-21T10:19:12;100206.14;;;-0.25;99.82
75536;BME280;64119;52.070;20.804;2023-11-21T10:21:43;100210.02;;;-0.22;100.00
75536;BME280;64119;52.070;20.804;2023-11-21T10:24:11;100212.21;;;-0.17;100.00
75536;BME280;64119;52.070;20.804;2023-11-21T10:26:40;100208.20;;;-0.13;99.96
75536;BME280;64119;52.070;20.804;2023-11-21T10:29:20;100208.88;;;-0.08;99.99
75536;BME280;64119;52.070;20.804;2023-11-21T10:31:50;100211.16;;;-0.04;99.97
75536;BME280;64119;52.070;20.804;2023-11-21T10:34:20;100214.89;;;-0.01;99.77
75536;BME280;64119;52.070;20.804;2023-11-21T10:36:49;100211.94;;;0.02;99.97
75536;BME280;64119;52.070;20.804;2023-11-21T10:39:19;100216.20;;;0.03;99.68
75536;BME280;64119;52.070;20.804;2023-11-21T10:41:48;100215.70;;;0.00;99.38
75536;BME280;64119;52.070;20.804;2023-11-21T10:44:17;100214.23;;;-0.04;98.97
75536;BME280;64119;52.070;20.804;2023-11-21T10:46:50;100218.63;;;-0.04;98.91
75536;BME280;64119;52.070;20.804;2023-11-21T10:49:20;100217.20;;;-0.04;98.87
75536;BME280;64119;52.070;20.804;2023-11-21T10:51:48;100218.98;;;-0.04;99.23
75536;BME280;64119;52.070;20.804;2023-11-21T10:54:19;100218.04;;;-0.01;99.39
75536;BME280;64119;52.070;20.804;2023-11-21T10:56:50;100219.58;;;0.02;99.37
75536;BME280;64119;52.070;20.804;2023-11-21T10:59:19;100223.44;;;0.06;99.35
75536;BME280;64119;52.070;20.804;2023-11-21T11:01:50;100223.98;;;0.05;98.16
75536;BME280;64119;52.070;20.804;2023-11-21T11:04:19;100224.89;;;0.05;98.26
75536;BME280;64119;52.070;20.804;2023-11-21T11:06:53;100226.09;;;0.09;98.68
75536;BME280;64119;52.070;20.804;2023-11-21T11:09:22;100225.81;;;0.13;98.77
75536;BME280;64119;52.070;20.804;2023-11-21T11:11:51;100230.48;;;0.13;98.55
75536;BME280;64119;52.070;20.804;2023-11-21T11:14:19;100232.33;;;0.10;98.52
75536;BME280;64119;52.070;20.804;2023-11-21T11:16:48;100232.65;;;0.12;98.88
75536;BME280;64119;52.070;20.804;2023-11-21T11:19:17;100228.68;;;0.10;98.77
75536;BME280;64119;52.070;20.804;2023-11-21T11:38:49;100241.06;;;-0.02;99.61
75536;BME280;64119;52.070;20.804;2023-11-21T11:41:29;100241.97;;;-0.02;99.41
75536;BME280;64119;52.070;20.804;2023-11-21T11:44:00;100242.56;;;-0.01;99.57
75536;BME280;64119;52.070;20.804;2023-11-21T11:46:44;100245.21;;;0.01;99.79
75536;BME280;64119;52.070;20.804;2023-11-21T11:49:27;100245.67;;;0.02;99.52
75536;BME280;64119;52.070;20.804;2023-11-21T11:55:16;100246.08;;;0.00;99.69
75536;BME280;64119;52.070;20.804;2023-11-21T11:57:47;100243.25;;;0.04;99.56
75536;BME280;64119;52.070;20.804;2023-11-21T12:00:19;100247.27;;;0.05;99.62
75536;BME280;64119;52.070;20.804;2023-11-21T12:02:51;100249.01;;;0.06;99.69
75536;BME280;64119;52.070;20.804;2023-11-21T12:05:20;100247.28;;;0.03;99.49
75536;BME280;64119;52.070;20.804;2023-11-21T12:07:53;100253.40;;;0.05;99.66
75536;BME280;64119;52.070;20.804;2023-11-21T12:10:26;100252.46;;;0.06;99.27
75536;BME280;64119;52.070;20.804;2023-11-21T12:15:25;100254.52;;;0.04;99.19
75536;BME280;64119;52.070;20.804;2023-11-21T12:17:53;100258.62;;;0.03;99.14
75536;BME280;64119;52.070;20.804;2023-11-21T12:20:23;100262.49;;;-0.00;98.25
75536;BME280;64119;52.070;20.804;2023-11-21T12:22:52;100264.50;;;-0.04;98.08
75536;BME280;64119;52.070;20.804;2023-11-21T12:25:25;100266.89;;;-0.03;98.72
75536;BME280;64119;52.070;20.804;2023-11-21T12:27:56;100266.14;;;-0.07;98.30
75536;BME280;64119;52.070;20.804;2023-11-21T12:30:32;100262.05;;;-0.10;98.26
75536;BME280;64119;52.070;20.804;2023-11-21T12:33:04;100268.82;;;-0.14;97.80
75536;BME280;64119;52.070;20.804;2023-11-21T12:35:35;100268.08;;;-0.16;98.21
75536;BME280;64119;52.070;20.804;2023-11-21T12:38:04;100270.23;;;-0.19;97.98
75536;BME280;64119;52.070;20.804;2023-11-21T12:40:37;100274.70;;;-0.20;98.04
75536;BME280;64119;52.070;20.804;2023-11-21T12:43:06;100275.52;;;-0.22;98.10
75536;BME280;64119;52.070;20.804;2023-11-21T12:45:35;100279.42;;;-0.23;98.08
75536;BME280;64119;52.070;20.804;2023-11-21T12:48:06;100280.23;;;-0.22;98.60
75536;BME280;64119;52.070;20.804;2023-11-21T12:50:39;100282.17;;;-0.20;98.84
75536;BME280;64119;52.070;20.804;2023-11-21T12:53:11;100285.81;;;-0.20;98.59
75536;BME280;64119;52.070;20.804;2023-11-21T12:55:40;100286.68;;;-0.20;98.94
75536;BME280;64119;52.070;20.804;2023-11-21T12:58:10;100288.42;;;-0.20;98.87
75536;BME280;64119;52.070;20.804;2023-11-21T13:00:45;100290.80;;;-0.19;98.86
75536;BME280;64119;52.070;20.804;2023-11-21T13:03:15;100288.43;;;-0.20;98.73
75536;BME280;64119;52.070;20.804;2023-11-21T13:05:54;100293.07;;;-0.22;98.85
75536;BME280;64119;52.070;20.804;2023-11-21T13:08:24;100294.83;;;-0.22;98.83
75536;BME280;64119;52.070;20.804;2023-11-21T13:10:55;100296.25;;;-0.20;98.89
75536;BME280;64119;52.070;20.804;2023-11-21T13:13:27;100300.95;;;-0.20;98.81